Bellfntn, Ohio
Current Conditions -  °F | °C
As of 11:35 PM on Tuesday 21 Oct 2014 (Local Time) from KEDJ Reporting Station
Overcast Overcast  
Wind Chill: 33°   Ceiling: 1200
Heat Index: 41°   Visibility: 10mi
Dew Point: 39°   Wind: 14mph
Humidity: 93%   Direction: 360°N
Pressure: 30.19"   Gusts: NA
Location:  40.3706°N, 83.7423°W
Report Text: KEDJ 220335Z AUTO 36012KT 10SM BKN012 OVC018 05/04 A3019 RMK AO1
Loading
Personal Weather Stations






























Interactive Weather Map
Tropical Storm Tracking
New forecast layout! Learn more

10-Day Weather Forecast

Advertisements
Track Severe Weather on mobile